createdAt,value
2018-11-06T00:01:39.184Z,20.60
2018-11-06T00:04:05.647Z,20.60
2018-11-06T00:06:32.379Z,20.60
2018-11-06T00:08:58.851Z,20.60
2018-11-06T00:11:25.303Z,20.60
2018-11-06T00:13:51.753Z,20.60
2018-11-06T00:16:18.223Z,20.60
2018-11-06T00:18:44.681Z,20.60
2018-11-06T00:21:11.137Z,20.60
2018-11-06T00:23:37.621Z,20.60
2018-11-06T00:26:04.035Z,20.60
2018-11-06T00:28:30.493Z,20.60
2018-11-06T00:30:56.946Z,20.60
2018-11-06T00:33:23.419Z,20.60
2018-11-06T00:35:49.843Z,20.50
2018-11-06T00:38:16.303Z,20.50
2018-11-06T00:40:42.776Z,20.50
2018-11-06T00:43:09.229Z,20.50
2018-11-06T00:45:35.664Z,20.50
2018-11-06T00:48:02.106Z,20.50
2018-11-06T00:50:28.522Z,20.50
2018-11-06T00:52:54.927Z,20.60
2018-11-06T00:55:21.383Z,20.50
2018-11-06T00:57:47.820Z,20.50
2018-11-06T01:00:16.338Z,20.50
2018-11-06T01:02:42.817Z,20.70
2018-11-06T01:05:10.364Z,20.50
2018-11-06T01:07:36.833Z,20.50
2018-11-06T01:10:03.648Z,20.50
2018-11-06T01:12:30.075Z,20.50
2018-11-06T01:14:56.560Z,20.50
2018-11-06T01:17:22.980Z,20.50
2018-11-06T01:19:49.413Z,20.50
2018-11-06T01:22:15.878Z,20.50
2018-11-06T01:24:42.305Z,20.50
2018-11-06T01:27:08.730Z,20.50
2018-11-06T01:29:35.145Z,20.50
2018-11-06T01:32:01.626Z,20.50
2018-11-06T01:34:28.046Z,20.50
2018-11-06T01:36:54.502Z,20.50
2018-11-06T01:39:20.992Z,20.50
2018-11-06T01:41:47.422Z,20.50
2018-11-06T01:44:15.928Z,20.50
2018-11-06T01:46:42.326Z,20.50
2018-11-06T01:49:08.756Z,20.50
2018-11-06T01:51:35.158Z,20.50
2018-11-06T01:54:01.650Z,20.50
2018-11-06T01:56:28.099Z,20.50
2018-11-06T01:58:54.530Z,20.40
2018-11-06T02:01:20.926Z,20.40
2018-11-06T02:03:47.378Z,20.50
2018-11-06T02:06:13.879Z,20.40
2018-11-06T02:08:40.320Z,20.50
2018-11-06T02:11:06.782Z,20.40
2018-11-06T02:13:33.224Z,20.40
2018-11-06T02:15:59.655Z,20.40
2018-11-06T02:18:26.070Z,20.40
2018-11-06T02:20:52.506Z,20.40
2018-11-06T02:23:18.952Z,20.40
2018-11-06T02:25:45.399Z,20.40
2018-11-06T02:28:11.864Z,20.40
2018-11-06T02:30:38.314Z,20.40
2018-11-06T02:33:04.778Z,20.40
2018-11-06T02:35:31.252Z,20.40
2018-11-06T02:37:57.670Z,20.40
2018-11-06T02:40:24.084Z,20.40
2018-11-06T02:42:50.512Z,20.50
2018-11-06T02:45:16.987Z,20.40
2018-11-06T02:47:43.648Z,20.40
2018-11-06T02:50:10.810Z,20.40
2018-11-06T02:52:37.286Z,20.40
2018-11-06T02:55:03.736Z,20.40
2018-11-06T02:57:30.206Z,20.40
2018-11-06T02:59:56.658Z,20.40
2018-11-06T03:02:23.133Z,20.40
2018-11-06T03:04:49.581Z,20.40
2018-11-06T03:07:16.068Z,20.40
2018-11-06T03:09:42.545Z,20.40
2018-11-06T03:12:08.961Z,20.40
2018-11-06T03:14:35.410Z,20.40
2018-11-06T03:17:02.041Z,20.40
2018-11-06T03:19:28.515Z,20.40
2018-11-06T03:21:54.939Z,20.40
2018-11-06T03:24:21.381Z,20.40
2018-11-06T03:26:47.815Z,20.40
2018-11-06T03:29:14.258Z,20.50
2018-11-06T03:31:40.698Z,20.40
2018-11-06T03:34:07.399Z,20.50
2018-11-06T03:36:33.941Z,20.40
2018-11-06T03:39:00.419Z,20.40
2018-11-06T03:41:26.881Z,20.40
2018-11-06T03:43:53.319Z,20.40
2018-11-06T03:46:19.743Z,20.40
2018-11-06T03:48:46.196Z,20.40
2018-11-06T03:51:12.645Z,20.40
2018-11-06T03:53:39.057Z,20.40
2018-11-06T03:56:05.515Z,20.40
2018-11-06T03:58:31.965Z,20.40
2018-11-06T04:00:58.384Z,20.40
2018-11-06T04:03:24.821Z,20.40
2018-11-06T04:05:51.247Z,19.90
2018-11-06T04:08:17.673Z,20.40
2018-11-06T04:10:44.107Z,20.30
2018-11-06T04:13:10.575Z,20.40
2018-11-06T04:15:37.001Z,20.30
2018-11-06T04:18:03.427Z,20.30
2018-11-06T04:20:29.891Z,20.30
2018-11-06T04:22:56.307Z,20.30
2018-11-06T04:25:22.710Z,20.30
2018-11-06T04:27:49.167Z,20.30
2018-11-06T04:30:15.633Z,20.30
2018-11-06T04:32:42.753Z,20.30
2018-11-06T04:35:09.841Z,20.30
2018-11-06T04:37:36.273Z,20.30
2018-11-06T04:40:03.468Z,20.30
2018-11-06T04:42:29.921Z,20.30
2018-11-06T04:44:56.376Z,20.30
2018-11-06T04:47:22.838Z,20.30
2018-11-06T04:49:49.324Z,20.30
2018-11-06T04:52:15.744Z,20.30
2018-11-06T04:54:42.192Z,20.30
2018-11-06T04:57:08.622Z,20.30
2018-11-06T04:59:35.066Z,20.30
2018-11-06T05:02:01.612Z,20.30
2018-11-06T05:04:27.998Z,20.30
2018-11-06T05:06:54.485Z,20.30
2018-11-06T05:09:20.867Z,20.30
2018-11-06T05:11:47.297Z,20.30
2018-11-06T05:14:13.823Z,20.30
2018-11-06T05:16:40.175Z,20.30
2018-11-06T05:19:06.626Z,20.30
2018-11-06T05:21:33.097Z,20.30
2018-11-06T05:23:59.581Z,20.30
2018-11-06T05:26:26.023Z,20.30
2018-11-06T05:28:52.495Z,20.30
2018-11-06T05:31:18.950Z,20.30
2018-11-06T05:33:45.415Z,20.30
2018-11-06T05:36:11.825Z,20.30
2018-11-06T05:38:38.246Z,20.30
2018-11-06T05:41:05.700Z,20.30
2018-11-06T05:43:32.524Z,20.30
2018-11-06T05:45:58.968Z,20.30
2018-11-06T05:48:25.437Z,20.30
2018-11-06T05:50:51.900Z,20.30
2018-11-06T05:53:18.764Z,20.30
2018-11-06T05:55:45.185Z,20.40
2018-11-06T05:58:11.624Z,20.40
2018-11-06T06:00:38.357Z,20.40
2018-11-06T06:03:05.062Z,20.40
2018-11-06T06:05:31.500Z,20.40
2018-11-06T06:07:57.998Z,20.40
2018-11-06T06:10:24.463Z,20.40
2018-11-06T06:12:50.917Z,20.40
2018-11-06T06:15:17.376Z,20.40
2018-11-06T06:17:43.811Z,20.40
2018-11-06T06:20:10.239Z,20.40
2018-11-06T06:22:36.756Z,20.40
2018-11-06T06:25:03.163Z,20.40
2018-11-06T06:27:29.859Z,20.40
2018-11-06T06:29:56.271Z,20.40
2018-11-06T06:32:22.710Z,20.40
2018-11-06T06:34:49.168Z,20.40
2018-11-06T06:37:15.614Z,20.40
2018-11-06T06:39:42.069Z,20.40
2018-11-06T06:42:08.534Z,20.40
2018-11-06T06:44:34.988Z,20.40
2018-11-06T06:47:01.386Z,20.40
2018-11-06T06:49:27.847Z,20.40
2018-11-06T06:51:54.321Z,20.40
2018-11-06T06:54:21.077Z,20.40
2018-11-06T06:56:47.329Z,20.40
2018-11-06T06:59:13.782Z,20.40
2018-11-06T07:01:40.218Z,20.30
2018-11-06T07:04:06.680Z,20.40
2018-11-06T07:06:33.117Z,20.40
2018-11-06T07:08:59.584Z,20.30
2018-11-06T07:11:26.050Z,20.40
2018-11-06T07:13:52.495Z,20.30
2018-11-06T07:16:18.946Z,20.40
2018-11-06T07:18:45.457Z,20.40
2018-11-06T07:21:11.908Z,20.40
2018-11-06T07:23:38.371Z,20.40
2018-11-06T07:26:04.867Z,20.30
2018-11-06T07:28:31.350Z,20.30
2018-11-06T07:30:57.792Z,20.30
2018-11-06T07:33:24.250Z,20.30
2018-11-06T07:35:50.839Z,20.30
2018-11-06T07:38:17.147Z,20.30
2018-11-06T07:40:43.631Z,20.30
2018-11-06T07:43:10.074Z,20.30
2018-11-06T07:45:36.505Z,20.30
2018-11-06T07:48:02.962Z,20.30
2018-11-06T07:50:29.473Z,20.30
2018-11-06T07:52:55.913Z,20.30
2018-11-06T07:55:22.369Z,20.30
2018-11-06T07:57:48.827Z,20.30
2018-11-06T08:00:17.304Z,20.30
2018-11-06T08:02:44.899Z,20.30
2018-11-06T08:05:11.372Z,20.30
2018-11-06T08:07:37.857Z,20.30
2018-11-06T08:10:04.781Z,20.30
2018-11-06T08:12:31.234Z,20.30
2018-11-06T08:14:57.775Z,20.30
2018-11-06T08:17:24.160Z,20.30
2018-11-06T08:19:50.592Z,20.30
2018-11-06T08:22:17.042Z,20.30
2018-11-06T08:24:43.492Z,20.40
2018-11-06T08:27:09.993Z,20.40
2018-11-06T08:29:36.492Z,20.40
2018-11-06T08:32:03.302Z,20.30
2018-11-06T08:34:29.417Z,20.40
2018-11-06T08:36:55.892Z,20.40
2018-11-06T08:39:22.343Z,20.40
2018-11-06T08:41:48.807Z,20.40
2018-11-06T08:44:15.259Z,20.40
2018-11-06T08:46:41.698Z,20.40
2018-11-06T08:49:08.148Z,20.40
2018-11-06T08:51:34.605Z,20.40
2018-11-06T08:54:01.036Z,20.40
2018-11-06T08:56:27.478Z,20.40
2018-11-06T08:58:53.905Z,20.40
2018-11-06T09:01:20.445Z,20.40
2018-11-06T09:03:46.892Z,20.50
2018-11-06T09:06:13.371Z,20.40
2018-11-06T09:08:39.852Z,20.40
2018-11-06T09:11:06.245Z,20.40
2018-11-06T09:13:32.695Z,20.40
2018-11-06T09:15:59.174Z,20.60
2018-11-06T09:18:25.651Z,20.40
2018-11-06T09:20:52.124Z,20.50
2018-11-06T09:23:18.555Z,20.50
2018-11-06T09:25:44.997Z,20.50
2018-11-06T09:28:11.432Z,20.40
2018-11-06T09:30:37.847Z,20.50
2018-11-06T09:33:04.314Z,20.50
2018-11-06T09:35:30.781Z,20.50
2018-11-06T09:37:57.211Z,20.40
2018-11-06T09:40:23.666Z,20.50
2018-11-06T09:42:50.110Z,20.40
2018-11-06T09:45:16.612Z,20.50
2018-11-06T09:47:43.026Z,20.50
2018-11-06T09:50:10.474Z,20.50
2018-11-06T09:52:36.916Z,20.50
2018-11-06T09:55:03.346Z,20.50
2018-11-06T09:57:29.784Z,20.60
2018-11-06T09:59:56.296Z,20.60
2018-11-06T10:02:22.688Z,20.60
2018-11-06T10:04:49.211Z,20.60
2018-11-06T10:07:15.911Z,20.60
2018-11-06T10:09:42.093Z,20.30
2018-11-06T10:12:08.615Z,20.60
2018-11-06T10:14:35.117Z,20.60
2018-11-06T10:17:01.576Z,20.60
2018-11-06T10:19:28.084Z,20.60
2018-11-06T10:21:54.510Z,20.70
2018-11-06T10:24:20.949Z,20.60
2018-11-06T10:26:47.383Z,20.70
2018-11-06T10:29:13.806Z,20.70
2018-11-06T10:31:40.251Z,20.70
2018-11-06T10:34:06.698Z,20.70
2018-11-06T10:36:33.153Z,20.70
2018-11-06T10:38:59.574Z,20.70
2018-11-06T10:41:25.994Z,20.70
2018-11-06T10:43:52.398Z,20.70
2018-11-06T10:46:18.829Z,20.70
2018-11-06T10:48:45.288Z,20.70
2018-11-06T10:51:11.744Z,20.80
2018-11-06T10:53:38.216Z,20.80
2018-11-06T10:56:04.688Z,20.90
2018-11-06T10:58:31.146Z,20.90
2018-11-06T11:01:03.281Z,20.90
2018-11-06T11:03:34.687Z,20.90
2018-11-06T11:06:01.468Z,20.90
2018-11-06T11:08:28.081Z,20.90
2018-11-06T11:10:54.516Z,20.90
2018-11-06T11:13:20.999Z,20.90
2018-11-06T11:15:47.421Z,20.90
2018-11-06T11:18:13.857Z,20.90
2018-11-06T11:20:40.302Z,20.90
2018-11-06T11:23:06.746Z,20.90
2018-11-06T11:25:33.270Z,20.90
2018-11-06T11:27:59.684Z,20.90
2018-11-06T11:30:26.155Z,20.90
2018-11-06T11:32:52.615Z,20.90
2018-11-06T11:35:19.047Z,20.80
2018-11-06T11:37:45.598Z,20.80
2018-11-06T11:40:14.032Z,20.90
2018-11-06T11:42:40.606Z,20.80
2018-11-06T11:45:07.079Z,20.80
2018-11-06T11:47:33.521Z,20.80
2018-11-06T11:49:59.975Z,20.90
2018-11-06T11:52:26.410Z,20.80
2018-11-06T11:54:53.019Z,20.90
2018-11-06T11:57:19.488Z,20.90
2018-11-06T11:59:45.955Z,20.90
2018-11-06T12:02:12.404Z,20.90
2018-11-06T12:04:38.839Z,20.90
2018-11-06T12:07:05.299Z,20.90
2018-11-06T12:09:31.741Z,20.80
2018-11-06T12:11:58.172Z,20.80
2018-11-06T12:14:24.605Z,20.80
2018-11-06T12:16:51.057Z,20.80
2018-11-06T12:19:17.559Z,20.80
2018-11-06T12:21:44.199Z,20.80
2018-11-06T12:24:10.716Z,20.80
2018-11-06T12:26:37.070Z,20.80
2018-11-06T12:29:03.565Z,20.80
2018-11-06T12:31:30.031Z,20.80
2018-11-06T12:33:56.487Z,20.80
2018-11-06T12:36:22.947Z,20.80
2018-11-06T12:38:49.413Z,20.70
2018-11-06T12:41:15.870Z,20.70
2018-11-06T12:43:42.470Z,20.70
2018-11-06T12:46:08.834Z,20.70
2018-11-06T12:48:35.310Z,20.70
2018-11-06T12:51:01.727Z,20.70
2018-11-06T12:53:28.162Z,20.80
2018-11-06T12:55:54.576Z,20.80
2018-11-06T12:58:21.018Z,20.70
2018-11-06T13:00:47.487Z,20.70
2018-11-06T13:03:14.831Z,20.80
2018-11-06T13:05:41.265Z,20.80
2018-11-06T13:08:07.714Z,20.80
2018-11-06T13:10:34.149Z,20.80
2018-11-06T13:13:00.601Z,20.80
2018-11-06T13:15:27.077Z,20.80
2018-11-06T13:17:53.520Z,20.80
2018-11-06T13:20:19.977Z,20.80
2018-11-06T13:22:46.445Z,20.80
2018-11-06T13:25:12.898Z,20.80
2018-11-06T13:27:40.358Z,20.80
2018-11-06T13:30:07.654Z,20.80
2018-11-06T13:32:34.156Z,20.80
2018-11-06T13:35:00.562Z,20.80
2018-11-06T13:37:27.003Z,20.80
2018-11-06T13:39:53.452Z,20.80
2018-11-06T13:42:19.934Z,20.80
2018-11-06T13:44:46.625Z,20.80
2018-11-06T13:47:12.792Z,20.80
2018-11-06T13:49:39.232Z,20.80
2018-11-06T13:52:05.976Z,20.80
2018-11-06T13:54:32.371Z,20.80
2018-11-06T13:56:58.820Z,20.80
2018-11-06T13:59:25.289Z,20.80
2018-11-06T14:01:51.753Z,20.70
2018-11-06T14:04:18.494Z,20.70
2018-11-06T14:06:44.959Z,20.70
2018-11-06T14:09:11.470Z,20.80
2018-11-06T14:11:37.927Z,20.70
2018-11-06T14:14:04.405Z,20.70
2018-11-06T14:16:30.869Z,20.70
2018-11-06T14:18:57.316Z,20.70
2018-11-06T14:21:23.747Z,20.70
2018-11-06T14:23:50.186Z,20.80
2018-11-06T14:26:16.635Z,20.70
2018-11-06T14:28:43.058Z,20.70
2018-11-06T14:31:09.500Z,20.70
2018-11-06T14:33:35.940Z,20.70
2018-11-06T14:36:02.473Z,20.70
2018-11-06T14:38:28.850Z,20.70
2018-11-06T14:40:55.316Z,20.70
2018-11-06T14:43:21.796Z,20.70
2018-11-06T14:45:48.272Z,20.70
2018-11-06T14:48:14.777Z,20.70
2018-11-06T14:50:41.178Z,20.70
2018-11-06T14:53:07.620Z,20.70
2018-11-06T14:55:34.067Z,20.70
2018-11-06T14:58:00.478Z,20.80
2018-11-06T15:00:26.924Z,20.80
2018-11-06T15:02:53.562Z,20.80
2018-11-06T15:05:20.811Z,20.80
2018-11-06T15:07:47.319Z,20.70
2018-11-06T15:10:13.755Z,20.70
2018-11-06T15:12:40.277Z,20.70
2018-11-06T15:15:06.669Z,20.70
2018-11-06T15:17:33.111Z,20.70
2018-11-06T15:19:59.553Z,20.70
2018-11-06T15:22:26.003Z,20.70
2018-11-06T15:24:52.476Z,20.70
2018-11-06T15:27:19.206Z,20.70
2018-11-06T15:29:45.619Z,20.70
2018-11-06T15:32:12.087Z,20.70
2018-11-06T15:34:38.520Z,20.70
2018-11-06T15:37:04.940Z,20.70
2018-11-06T15:39:31.388Z,20.70
2018-11-06T15:41:57.986Z,20.70
2018-11-06T15:44:24.348Z,20.70
2018-11-06T15:46:50.830Z,20.70
2018-11-06T15:49:17.410Z,20.70
2018-11-06T15:51:43.761Z,20.70
2018-11-06T15:54:10.195Z,20.70
2018-11-06T15:56:36.641Z,20.70
2018-11-06T15:59:03.091Z,20.70
2018-11-06T16:01:29.538Z,20.50
2018-11-06T16:03:56.416Z,20.60
2018-11-06T16:06:23.199Z,20.60
2018-11-06T16:08:50.054Z,20.60
2018-11-06T16:11:16.589Z,20.60
2018-11-06T16:13:43.023Z,20.60
2018-11-06T16:16:09.483Z,20.60
2018-11-06T16:18:35.949Z,20.60
2018-11-06T16:21:02.488Z,20.60
2018-11-06T16:23:28.960Z,20.60
2018-11-06T16:25:55.405Z,20.60
2018-11-06T16:28:21.902Z,20.60
2018-11-06T16:30:48.395Z,20.60
2018-11-06T16:33:14.834Z,20.60
2018-11-06T16:35:41.279Z,20.70
2018-11-06T16:38:07.839Z,20.70
2018-11-06T16:40:34.319Z,20.70
2018-11-06T16:43:00.806Z,20.70
2018-11-06T16:45:27.232Z,20.70
2018-11-06T16:47:53.697Z,20.70
2018-11-06T16:50:20.167Z,20.80
2018-11-06T16:52:46.663Z,20.80
2018-11-06T16:55:13.687Z,20.80
2018-11-06T16:57:41.170Z,20.90
2018-11-06T17:00:07.777Z,20.90
2018-11-06T17:02:34.127Z,20.90
2018-11-06T17:05:00.615Z,21.00
2018-11-06T17:07:27.113Z,21.00
2018-11-06T17:09:53.588Z,21.00
2018-11-06T17:12:20.031Z,21.00
2018-11-06T17:14:46.512Z,21.00
2018-11-06T17:17:13.008Z,21.10
2018-11-06T17:19:39.430Z,21.10
2018-11-06T17:22:05.879Z,21.10
2018-11-06T17:24:32.334Z,21.10
2018-11-06T17:26:58.796Z,21.10
2018-11-06T17:29:25.265Z,21.20
2018-11-06T17:31:51.828Z,21.20
2018-11-06T17:34:18.478Z,21.20
2018-11-06T17:36:44.911Z,21.20
2018-11-06T17:39:12.792Z,21.20
2018-11-06T17:41:39.240Z,21.20
2018-11-06T17:44:05.741Z,21.20
2018-11-06T17:46:32.167Z,21.20
2018-11-06T17:48:58.635Z,21.20
2018-11-06T17:51:25.047Z,21.20
2018-11-06T17:53:51.467Z,21.20
2018-11-06T17:56:17.909Z,21.30
2018-11-06T17:58:44.326Z,21.20
2018-11-06T18:01:10.768Z,21.30
2018-11-06T18:03:37.257Z,21.30
2018-11-06T18:06:03.724Z,21.30
2018-11-06T18:08:30.186Z,21.30
2018-11-06T18:10:56.700Z,21.30
2018-11-06T18:13:23.803Z,21.40
2018-11-06T18:15:50.263Z,21.40
2018-11-06T18:18:16.748Z,21.40
2018-11-06T18:20:43.241Z,21.50
2018-11-06T18:23:09.705Z,21.50
2018-11-06T18:25:36.272Z,21.50
2018-11-06T18:28:02.590Z,21.50
2018-11-06T18:30:29.097Z,21.50
2018-11-06T18:32:55.488Z,21.50
2018-11-06T18:35:21.962Z,21.60
2018-11-06T18:37:48.412Z,21.60
2018-11-06T18:40:16.054Z,21.60
2018-11-06T18:42:43.424Z,21.60
2018-11-06T18:45:09.905Z,21.60
2018-11-06T18:47:36.773Z,21.60
2018-11-06T18:50:03.222Z,21.60
2018-11-06T18:52:29.717Z,21.70
2018-11-06T18:54:56.165Z,21.70
2018-11-06T18:57:22.627Z,21.70
2018-11-06T18:59:49.107Z,21.70
2018-11-06T19:02:15.561Z,21.70
2018-11-06T19:04:42.018Z,21.70
2018-11-06T19:07:08.455Z,21.80
2018-11-06T19:09:34.925Z,21.80
2018-11-06T19:12:01.394Z,21.80
2018-11-06T19:14:27.893Z,21.80
2018-11-06T19:16:54.457Z,21.80
2018-11-06T19:19:20.865Z,21.80
2018-11-06T19:21:47.322Z,21.80
2018-11-06T19:24:13.883Z,21.80
2018-11-06T19:26:40.260Z,21.80
2018-11-06T19:29:06.710Z,21.80
2018-11-06T19:31:33.145Z,21.80
2018-11-06T19:33:59.615Z,21.80
2018-11-06T19:36:26.622Z,21.80
2018-11-06T19:38:53.156Z,21.90
2018-11-06T19:41:19.591Z,21.90
2018-11-06T19:43:46.016Z,21.90
2018-11-06T19:46:12.567Z,21.90
2018-11-06T19:48:38.974Z,22.00
2018-11-06T19:51:05.490Z,22.00
2018-11-06T19:53:31.995Z,22.00
2018-11-06T19:55:58.416Z,22.00
2018-11-06T19:58:24.875Z,22.00
2018-11-06T20:00:51.563Z,21.90
2018-11-06T20:03:17.974Z,22.10
2018-11-06T20:05:44.473Z,22.10
2018-11-06T20:08:10.942Z,22.10
2018-11-06T20:10:37.390Z,22.10
2018-11-06T20:13:03.812Z,22.20
2018-11-06T20:15:30.372Z,22.20
2018-11-06T20:17:56.831Z,22.20
2018-11-06T20:20:23.294Z,22.20
2018-11-06T20:22:49.711Z,22.20
2018-11-06T20:25:16.160Z,22.20
2018-11-06T20:27:43.191Z,22.20
2018-11-06T20:30:09.681Z,22.20
2018-11-06T20:32:36.119Z,22.20
2018-11-06T20:35:02.628Z,22.20
2018-11-06T20:37:29.135Z,22.20
2018-11-06T20:39:55.582Z,22.20
2018-11-06T20:42:22.036Z,22.20
2018-11-06T20:44:48.494Z,22.20
2018-11-06T20:47:15.101Z,22.20
2018-11-06T20:49:41.925Z,22.20
2018-11-06T20:52:08.315Z,22.20
2018-11-06T20:54:35.012Z,22.20
2018-11-06T20:57:01.598Z,22.20
2018-11-06T20:59:28.340Z,22.30
2018-11-06T21:01:54.782Z,22.30
2018-11-06T21:04:21.233Z,22.30
2018-11-06T21:06:47.710Z,22.30
2018-11-06T21:09:14.192Z,22.30
2018-11-06T21:11:40.694Z,22.30
2018-11-06T21:14:07.108Z,22.30
2018-11-06T21:16:33.583Z,22.30
2018-11-06T21:19:00.822Z,22.20
2018-11-06T21:21:28.121Z,22.20
2018-11-06T21:23:54.836Z,22.20
2018-11-06T21:26:21.460Z,22.20
2018-11-06T21:28:47.793Z,22.20
2018-11-06T21:31:14.783Z,22.20
2018-11-06T21:33:41.490Z,22.20
2018-11-06T21:36:07.983Z,22.10
2018-11-06T21:38:34.437Z,22.10
2018-11-06T21:41:00.886Z,22.00
2018-11-06T21:43:27.335Z,22.00
2018-11-06T21:45:53.770Z,22.00
2018-11-06T21:48:20.225Z,22.00
2018-11-06T21:50:46.667Z,22.00
2018-11-06T21:53:13.124Z,22.00
2018-11-06T21:55:39.555Z,22.00
2018-11-06T21:58:06.074Z,22.00
2018-11-06T22:00:32.601Z,22.00
2018-11-06T22:02:59.038Z,22.00
2018-11-06T22:05:25.506Z,22.00
2018-11-06T22:07:51.947Z,22.00
2018-11-06T22:10:19.504Z,21.90
2018-11-06T22:12:46.341Z,21.90
2018-11-06T22:15:13.926Z,21.90
2018-11-06T22:17:40.661Z,21.90
2018-11-06T22:20:07.159Z,21.90
2018-11-06T22:22:33.620Z,21.80
2018-11-06T22:25:00.051Z,21.80
2018-11-06T22:27:26.533Z,21.80
2018-11-06T22:29:52.947Z,21.80
2018-11-06T22:32:19.433Z,21.80
2018-11-06T22:34:45.982Z,21.80
2018-11-06T22:37:12.458Z,21.80
2018-11-06T22:39:38.895Z,21.80
2018-11-06T22:42:05.370Z,21.70
2018-11-06T22:44:31.809Z,21.80
2018-11-06T22:46:58.365Z,21.70
2018-11-06T22:49:24.803Z,21.80
2018-11-06T22:51:51.232Z,21.70
2018-11-06T22:54:17.684Z,21.70
2018-11-06T22:56:44.254Z,21.60
2018-11-06T22:59:10.689Z,21.60
2018-11-06T23:01:37.140Z,21.60
2018-11-06T23:04:03.564Z,21.60
2018-11-06T23:06:30.058Z,21.60
2018-11-06T23:08:56.455Z,21.60
2018-11-06T23:11:22.991Z,21.50
2018-11-06T23:13:49.455Z,21.50
2018-11-06T23:16:15.912Z,21.50
2018-11-06T23:18:42.326Z,21.50
2018-11-06T23:21:08.768Z,21.40
2018-11-06T23:23:35.403Z,21.40
2018-11-06T23:26:01.873Z,21.40
2018-11-06T23:28:28.342Z,21.40
2018-11-06T23:30:54.779Z,21.40
2018-11-06T23:33:21.260Z,21.40
2018-11-06T23:35:47.778Z,21.30
2018-11-06T23:38:14.254Z,21.30
2018-11-06T23:40:40.812Z,21.30
2018-11-06T23:43:07.230Z,21.30
2018-11-06T23:45:33.661Z,21.30
2018-11-06T23:48:00.126Z,21.30
2018-11-06T23:50:26.553Z,21.30
2018-11-06T23:52:52.992Z,21.30
2018-11-06T23:55:19.462Z,21.20
2018-11-06T23:57:45.918Z,21.30
